Terminal Aerodrome Forecast
Issued by NWS Jackson, KY

Home | Current Version | Previous Version | Text Only | Print | Product List | Glossary On
Versions: 1 2 3 4 5 6 7 8 9 10 11 12 13 14 15 16 17 18 19 20
000
FTUS43 KJKL 171257 AAB
TAFJKL
TAF AMD
KJKL 171257Z 1713/1812 20007KT 6SM -SHRA BR OVC050 WS020/21040KT
      TEMPO 1713/1715 3SM -SHRA BR BKN007
     FM171500 21008KT P6SM -SHRA OVC025
     FM171700 22010KT P6SM -SHRA OVC015
     FM180000 26006KT P6SM VCSH OVC020
     FM180600 27004KT 3SM BR OVC015=

USA.gov is the U.S. government's official web portal to all federal, state and local government web resources and services.